Time;durP1;ratioP1;P1;durP2;ratioP2;P2;SDS_P1;SDS_P2;PMS_P1;PMS_P2;Temp;Humidity;BMP_temperature;BMP_pressure;BME280_temperature;BME280_humidity;BME280_pressure;Samples;Min_cycle;Max_cycle;Signal;HPM_P1;HPM_P2
2021/03/07 00:00:52;;;;;;;13.30;9.07;;;9.90;48.80;;;;;;4264508;27;20057;-70
2021/03/07 00:02:54;;;;;;;16.17;10.25;;;10.00;50.30;;;;;;4264690;27;20043;-72
2021/03/07 00:04:56;;;;;;;24.45;12.13;;;9.80;46.80;;;;;;4246289;27;20566;-71
2021/03/07 00:06:58;;;;;;;16.92;9.75;;;9.00;47.30;;;;;;4264666;27;20524;-70
2021/03/07 00:09:00;;;;;;;12.77;9.75;;;9.30;49.60;;;;;;4264763;27;20047;-71
2021/03/07 00:11:02;;;;;;;16.15;9.88;;;9.30;49.30;;;;;;4264450;27;20046;-70
2021/03/07 00:13:04;;;;;;;12.93;8.65;;;9.00;50.60;;;;;;4264159;27;20050;-71
2021/03/07 00:15:07;;;;;;;8.63;6.10;;;9.10;51.20;;;;;;4264377;27;20051;-70
2021/03/07 00:17:09;;;;;;;8.70;5.47;;;9.60;52.80;;;;;;4264294;27;20099;-71
2021/03/07 00:19:11;;;;;;;10.00;5.82;;;10.30;53.60;;;;;;4264442;27;20080;-71
2021/03/07 00:21:15;;;;;;;13.18;9.80;;;10.60;49.30;;;;;;4263902;27;20205;-71
2021/03/07 00:23:17;;;;;;;10.23;5.90;;;9.60;48.40;;;;;;4264086;27;20043;-70
2021/03/07 00:25:19;;;;;;;9.88;5.55;;;10.20;50.50;;;;;;4264547;27;20471;-71
2021/03/07 00:27:21;;;;;;;12.88;8.45;;;11.50;50.80;;;;;;4264157;27;20486;-70
2021/03/07 00:29:22;;;;;;;8.50;6.13;;;11.40;46.90;;;;;;4264217;27;20472;-73
2021/03/07 00:31:24;;;;;;;8.00;5.78;;;11.50;50.00;;;;;;4265458;27;20043;-71
2021/03/07 00:33:26;;;;;;;9.82;6.05;;;12.90;46.90;;;;;;4266129;27;20494;-70
2021/03/07 00:35:28;;;;;;;16.23;10.55;;;13.50;45.20;;;;;;4265750;27;20061;-72
2021/03/07 00:37:30;;;;;;;13.55;8.55;;;12.60;40.20;;;;;;4265602;27;20058;-72
2021/03/07 00:39:32;;;;;;;12.23;7.15;;;12.30;41.10;;;;;;4265064;27;20115;-71
2021/03/07 00:41:35;;;;;;;9.52;6.15;;;12.50;45.30;;;;;;4263919;27;20092;-71
2021/03/07 00:43:36;;;;;;;8.88;5.13;;;13.40;44.60;;;;;;4269106;27;20103;-74
2021/03/07 00:45:38;;;;;;;12.70;9.68;;;14.00;43.90;;;;;;4267345;27;20075;-72
2021/03/07 00:47:41;;;;;;;12.35;8.75;;;12.10;39.50;;;;;;4263672;27;20082;-71
2021/03/07 00:49:43;;;;;;;17.30;10.77;;;11.10;42.00;;;;;;4263899;27;20047;-71
2021/03/07 00:51:45;;;;;;;10.40;7.40;;;10.70;43.20;;;;;;4264059;27;20095;-71
2021/03/07 00:53:47;;;;;;;14.10;7.45;;;10.30;48.00;;;;;;4263790;27;20043;-71
2021/03/07 00:55:50;;;;;;;13.95;8.55;;;10.70;47.40;;;;;;4263651;27;20482;-70
2021/03/07 00:57:52;;;;;;;13.75;9.68;;;10.60;47.20;;;;;;4263963;27;20090;-71
2021/03/07 00:59:54;;;;;;;9.25;6.07;;;10.50;45.40;;;;;;4263898;27;20042;-71
2021/03/07 01:01:55;;;;;;;10.85;7.22;;;11.40;48.90;;;;;;4264178;27;20482;-71
2021/03/07 01:03:57;;;;;;;8.15;5.47;;;11.20;44.60;;;;;;4264338;27;20066;-71
2021/03/07 01:05:59;;;;;;;11.10;7.57;;;11.20;48.70;;;;;;4245542;27;20043;-70
2021/03/07 01:08:01;;;;;;;15.63;8.80;;;11.60;44.30;;;;;;4264089;27;20047;-72
2021/03/07 01:10:10;;;;;;;11.50;7.82;;;11.60;45.20;;;;;;4263571;27;20043;-68
2021/03/07 01:12:13;;;;;;;16.33;10.02;;;11.90;45.40;;;;;;4245640;28;20482;-70
2021/03/07 01:14:14;;;;;;;9.07;5.45;;;10.50;44.10;;;;;;4262878;27;20100;-68
2021/03/07 01:16:16;;;;;;;14.93;10.02;;;11.10;51.60;;;;;;4263334;27;20049;-68
2021/03/07 01:18:19;;;;;;;11.27;7.78;;;10.10;44.20;;;;;;4263726;27;20047;-70
2021/03/07 01:20:21;;;;;;;8.00;6.05;;;10.40;48.10;;;;;;4264179;27;20409;-68
2021/03/07 01:22:27;;;;;;;7.47;5.30;;;11.60;50.10;;;;;;4264117;27;20039;-68
2021/03/07 01:24:29;;;;;;;10.50;6.72;;;12.80;46.40;;;;;;4264011;27;20074;-69
2021/03/07 01:26:31;;;;;;;7.65;5.05;;;13.40;43.60;;;;;;4263745;27;20043;-70
2021/03/07 01:28:34;;;;;;;7.10;5.18;;;14.10;43.60;;;;;;4263588;27;20051;-71
2021/03/07 01:30:37;;;;;;;10.18;5.63;;;14.70;41.80;;;;;;4263570;27;20051;-71
2021/03/07 01:32:39;;;;;;;6.43;4.80;;;14.80;41.20;;;;;;4263225;27;20046;-71
2021/03/07 01:34:41;;;;;;;9.70;4.88;;;15.20;40.80;;;;;;4263361;27;20514;-68
2021/03/07 01:36:44;;;;;;;9.27;6.28;;;14.80;40.30;;;;;;4263052;27;20384;-67
2021/03/07 01:38:45;;;;;;;11.30;8.30;;;14.50;40.40;;;;;;4263160;27;20051;-67
2021/03/07 01:40:49;;;;;;;13.70;9.02;;;14.00;37.30;;;;;;4263328;27;20051;-67
2021/03/07 01:42:53;;;;;;;9.45;6.70;;;13.30;39.20;;;;;;4263257;27;20047;-69
2021/03/07 01:44:56;;;;;;;7.07;5.55;;;13.10;43.00;;;;;;4263202;27;20099;-68
2021/03/07 01:46:57;;;;;;;8.02;5.40;;;13.10;43.40;;;;;;4263064;27;20043;-68
2021/03/07 01:48:59;;;;;;;8.93;6.85;;;12.80;44.80;;;;;;4262932;27;20086;-68
2021/03/07 01:51:01;;;;;;;13.20;10.38;;;12.40;43.20;;;;;;4263287;27;20043;-67
2021/03/07 01:53:04;;;;;;;6.85;5.45;;;11.30;42.00;;;;;;4264162;27;20042;-70
2021/03/07 01:55:06;;;;;;;9.82;6.47;;;12.30;45.60;;;;;;4264030;27;20046;-69
2021/03/07 01:57:11;;;;;;;13.90;8.52;;;11.50;44.10;;;;;;4264143;27;20047;-69
2021/03/07 01:59:15;;;;;;;11.48;7.50;;;11.00;47.20;;;;;;4264046;27;20467;-68
2021/03/07 02:01:18;;;;;;;9.27;4.83;;;11.60;45.60;;;;;;4263067;27;20384;-68
2021/03/07 02:03:20;;;;;;;9.13;6.53;;;11.30;48.30;;;;;;4263185;27;20465;-67
2021/03/07 02:05:22;;;;;;;11.18;5.78;;;12.60;46.90;;;;;;4263185;27;20079;-67
2021/03/07 02:07:24;;;;;;;9.45;5.95;;;12.40;45.60;;;;;;4262973;27;20049;-68
2021/03/07 02:09:26;;;;;;;11.77;6.80;;;12.80;44.60;;;;;;4263209;27;20395;-70
2021/03/07 02:11:27;;;;;;;11.07;6.65;;;11.90;45.70;;;;;;4263844;27;20047;-70
2021/03/07 02:13:32;;;;;;;6.20;5.28;;;12.60;44.10;;;;;;4264380;27;20178;-70
2021/03/07 02:15:38;;;;;;;10.48;6.05;;;12.20;45.90;;;;;;4263940;27;20051;-68
2021/03/07 02:17:42;;;;;;;8.63;5.15;;;12.80;46.50;;;;;;4263709;27;20043;-71
2021/03/07 02:19:44;;;;;;;6.53;5.03;;;12.70;46.50;;;;;;4264097;27;20085;-69
2021/03/07 02:21:48;;;;;;;11.50;6.57;;;13.50;45.00;;;;;;4266697;27;20676;-74
2021/03/07 02:24:00;;;;;;;8.20;4.15;;;13.70;43.20;;;;;;4245452;28;20483;-69
2021/03/07 02:26:04;;;;;;;10.52;6.03;;;14.30;42.80;;;;;;4265107;27;20111;-70
2021/03/07 02:28:07;;;;;;;13.27;9.40;;;14.20;39.20;;;;;;4266354;27;20050;-68
2021/03/07 02:30:11;;;;;;;9.55;5.43;;;12.70;41.70;;;;;;4266688;27;20050;-68
2021/03/07 02:32:18;;;;;;;8.48;5.30;;;13.50;44.70;;;;;;4266578;27;20103;-68
2021/03/07 02:34:27;;;;;;;8.23;6.07;;;13.90;44.10;;;;;;4266646;27;20042;-68
2021/03/07 02:36:35;;;;;;;8.65;6.38;;;14.30;42.00;;;;;;4266295;27;20049;-68
2021/03/07 02:38:39;;;;;;;9.77;5.28;;;13.70;41.50;;;;;;4266076;27;20046;-68
2021/03/07 02:40:42;;;;;;;7.30;5.43;;;14.40;42.30;;;;;;4265932;27;20046;-70
2021/03/07 02:42:46;;;;;;;7.75;5.07;;;14.50;41.40;;;;;;4266589;27;20460;-71
2021/03/07 02:44:53;;;;;;;10.05;6.90;;;14.80;41.20;;;;;;4266610;27;20544;-69
2021/03/07 02:46:55;;;;;;;7.38;5.07;;;14.90;37.40;;;;;;4266282;27;20047;-70
2021/03/07 02:48:59;;;;;;;12.65;8.90;;;15.20;40.90;;;;;;4266230;27;20402;-68
2021/03/07 02:51:03;;;;;;;8.48;5.57;;;14.70;37.20;;;;;;4266731;27;20042;-68
2021/03/07 02:53:08;;;;;;;12.02;5.53;;;13.00;41.30;;;;;;4266366;27;20039;-70
2021/03/07 02:55:11;;;;;;;9.85;6.07;;;13.30;43.00;;;;;;4266602;27;20058;-68
2021/03/07 02:57:14;;;;;;;8.20;5.65;;;13.60;42.60;;;;;;4266385;27;20600;-68
2021/03/07 02:59:18;;;;;;;9.70;6.30;;;13.90;42.10;;;;;;4266910;27;20088;-72
2021/03/07 03:01:20;;;;;;;7.90;5.75;;;13.40;42.90;;;;;;4267401;27;20440;-69
2021/03/07 03:03:26;;;;;;;8.32;5.45;;;14.10;42.80;;;;;;4268242;27;20453;-69
2021/03/07 03:05:29;;;;;;;11.48;7.25;;;14.50;40.50;;;;;;4267074;27;20123;-69
2021/03/07 03:07:34;;;;;;;7.38;4.88;;;14.30;38.30;;;;;;4266762;27;20043;-70
2021/03/07 03:09:36;;;;;;;7.10;5.70;;;14.20;41.70;;;;;;4249627;27;20514;-69
2021/03/07 03:11:40;;;;;;;8.15;5.93;;;14.20;42.00;;;;;;4251325;27;20550;-71
2021/03/07 03:13:45;;;;;;;9.32;5.85;;;14.70;41.00;;;;;;4269829;27;20046;-72
2021/03/07 03:15:47;;;;;;;10.18;5.30;;;15.00;40.70;;;;;;4269258;27;20047;-70
2021/03/07 03:17:51;;;;;;;8.68;6.00;;;15.20;39.70;;;;;;4250497;27;20124;-71
2021/03/07 03:19:54;;;;;;;9.13;5.75;;;15.20;40.00;;;;;;4267240;27;20132;-69
2021/03/07 03:21:56;;;;;;;11.73;9.38;;;15.20;40.00;;;;;;4266447;27;20046;-71
2021/03/07 03:23:58;;;;;;;6.65;4.57;;;14.90;38.40;;;;;;4266404;27;20042;-70
2021/03/07 03:26:00;;;;;;;9.32;6.13;;;15.20;40.80;;;;;;4266087;27;20478;-68
2021/03/07 03:28:04;;;;;;;14.18;11.43;;;15.00;39.70;;;;;;4265618;27;20061;-72
2021/03/07 03:30:10;;;;;;;9.05;5.32;;;13.80;36.30;;;;;;4265785;27;20170;-71
2021/03/07 03:32:12;;;;;;;6.55;5.13;;;14.30;41.10;;;;;;4266848;27;20047;-71
2021/03/07 03:34:14;;;;;;;10.63;7.47;;;14.50;42.00;;;;;;4266670;27;20134;-69
2021/03/07 03:36:16;;;;;;;11.25;7.93;;;13.30;39.80;;;;;;4266723;27;20099;-71
2021/03/07 03:38:18;;;;;;;8.43;6.30;;;12.90;44.00;;;;;;4267031;27;20143;-70
2021/03/07 03:40:23;;;;;;;11.80;8.95;;;12.40;45.80;;;;;;4267301;27;20475;-70
2021/03/07 03:42:26;;;;;;;8.20;5.60;;;11.80;44.40;;;;;;4268094;27;20043;-71
2021/03/07 03:44:32;;;;;;;8.90;5.95;;;12.00;45.40;;;;;;4266109;27;20043;-70
2021/03/07 03:46:39;;;;;;;9.68;6.75;;;13.10;46.30;;;;;;4265648;27;20089;-71
2021/03/07 03:48:45;;;;;;;10.13;7.40;;;13.50;43.70;;;;;;4264784;27;20054;-71
2021/03/07 03:50:49;;;;;;;6.80;5.20;;;13.50;42.70;;;;;;4264593;27;20128;-70
2021/03/07 03:52:52;;;;;;;8.30;5.90;;;13.70;44.10;;;;;;4264801;27;20489;-71
2021/03/07 03:54:57;;;;;;;9.38;6.13;;;13.10;44.80;;;;;;4265632;27;20050;-72
2021/03/07 03:57:00;;;;;;;14.07;10.05;;;12.80;42.00;;;;;;4268455;27;20038;-71
2021/03/07 03:59:04;;;;;;;7.22;5.00;;;11.50;42.30;;;;;;4264304;27;20047;-70
2021/03/07 04:01:07;;;;;;;15.38;11.05;;;13.10;47.10;;;;;;4264593;27;20051;-71
2021/03/07 04:03:13;;;;;;;11.05;6.00;;;13.20;40.50;;;;;;4264524;27;20046;-70
2021/03/07 04:05:18;;;;;;;8.88;5.72;;;12.70;45.40;;;;;;4264663;27;20047;-69
2021/03/07 04:07:21;;;;;;;11.48;7.80;;;13.00;44.20;;;;;;4264352;27;20384;-70
2021/03/07 04:09:25;;;;;;;9.98;6.45;;;13.40;42.80;;;;;;4264283;27;20050;-70
2021/03/07 04:11:27;;;;;;;8.25;5.75;;;13.60;41.20;;;;;;4264367;27;20043;-71
2021/03/07 04:13:48;;;;;;;14.27;10.45;;;13.80;43.30;;;;;;4264474;27;20514;-72
2021/03/07 04:15:50;;;;;;;7.13;5.82;;;12.40;39.80;;;;;;4264157;27;20047;-70
2021/03/07 04:17:55;;;;;;;10.98;7.60;;;12.60;46.20;;;;;;4264051;27;20047;-70
2021/03/07 04:19:58;;;;;;;18.60;10.35;;;13.00;44.10;;;;;;4264390;27;20126;-71
2021/03/07 04:22:00;;;;;;;15.20;11.63;;;12.10;41.70;;;;;;4264094;27;20103;-70
2021/03/07 04:24:02;;;;;;;7.63;5.57;;;11.00;45.20;;;;;;4264506;27;20043;-70
2021/03/07 04:26:04;;;;;;;13.40;9.82;;;11.50;49.60;;;;;;4263998;27;20047;-71
2021/03/07 04:28:07;;;;;;;9.75;5.88;;;10.30;45.90;;;;;;4264133;27;20046;-69
2021/03/07 04:30:11;;;;;;;12.48;8.80;;;11.40;48.90;;;;;;4264415;27;20099;-71
2021/03/07 04:32:12;;;;;;;9.80;5.35;;;10.20;47.20;;;;;;4263915;27;20043;-70
2021/03/07 04:34:15;;;;;;;22.83;14.13;;;11.10;52.50;;;;;;4265878;27;20074;-71
2021/03/07 04:36:17;;;;;;;11.07;7.25;;;10.10;44.40;;;;;;4265806;27;20069;-70
2021/03/07 04:38:19;;;;;;;8.48;6.25;;;10.90;50.90;;;;;;4265063;27;20050;-72
2021/03/07 04:40:21;;;;;;;15.45;10.27;;;11.70;50.20;;;;;;4265486;27;20441;-71
2021/03/07 04:42:23;;;;;;;15.48;11.13;;;10.90;45.00;;;;;;4264781;27;20493;-72
2021/03/07 04:44:24;;;;;;;9.90;6.30;;;11.90;44.20;;;;;;4264442;27;20043;-70
2021/03/07 04:46:27;;;;;;;10.55;6.40;;;12.70;47.00;;;;;;4264263;27;20056;-71
2021/03/07 04:48:30;;;;;;;9.23;6.68;;;13.30;45.60;;;;;;4264081;27;20138;-71
2021/03/07 04:50:32;;;;;;;8.68;5.63;;;13.40;44.40;;;;;;4264948;27;20039;-72
2021/03/07 04:52:35;;;;;;;10.65;6.80;;;13.10;45.20;;;;;;4264781;27;20639;-73
2021/03/07 04:54:37;;;;;;;13.88;8.80;;;13.00;45.70;;;;;;4264631;27;20042;-70
2021/03/07 04:56:39;;;;;;;11.45;6.22;;;13.00;43.30;;;;;;4265176;27;20046;-70
2021/03/07 04:58:41;;;;;;;10.30;8.05;;;13.10;43.60;;;;;;4266299;27;20047;-71
2021/03/07 05:00:43;;;;;;;7.90;5.95;;;12.70;41.30;;;;;;4265704;27;20047;-71
2021/03/07 05:02:45;;;;;;;9.35;6.40;;;13.50;45.00;;;;;;4265199;27;20130;-74
2021/03/07 05:04:47;;;;;;;8.45;5.82;;;12.80;45.60;;;;;;4265907;27;20050;-70
2021/03/07 05:06:49;;;;;;;16.52;10.75;;;13.80;43.80;;;;;;4265802;27;20114;-73
2021/03/07 05:08:52;;;;;;;12.88;8.35;;;13.10;40.70;;;;;;4264623;27;20062;-70
2021/03/07 05:10:54;;;;;;;10.30;5.88;;;12.50;45.00;;;;;;4263970;27;20095;-70
2021/03/07 05:12:55;;;;;;;11.85;7.10;;;13.30;45.00;;;;;;4263618;27;20047;-69
2021/03/07 05:14:57;;;;;;;12.90;7.35;;;13.90;42.80;;;;;;4263791;27;20050;-71
2021/03/07 05:16:59;;;;;;;13.05;10.15;;;14.00;42.10;;;;;;4263548;27;20100;-72
2021/03/07 05:19:01;;;;;;;8.75;5.43;;;13.40;39.30;;;;;;4263503;27;20157;-70
2021/03/07 05:21:04;;;;;;;11.30;5.93;;;14.10;43.00;;;;;;4263562;27;20042;-71
2021/03/07 05:23:06;;;;;;;9.35;6.40;;;13.90;41.60;;;;;;4263525;27;20593;-71
2021/03/07 05:25:10;;;;;;;10.73;7.38;;;13.40;43.30;;;;;;4263379;27;20085;-70
2021/03/07 05:27:13;;;;;;;8.25;6.20;;;13.30;43.30;;;;;;4263233;27;20050;-71
2021/03/07 05:29:15;;;;;;;8.75;6.70;;;13.10;44.50;;;;;;4263547;27;20111;-71
2021/03/07 05:31:17;;;;;;;19.48;11.95;;;13.70;43.90;;;;;;4263378;27;20046;-69
2021/03/07 05:33:18;;;;;;;7.53;5.60;;;13.50;41.00;;;;;;4263390;27;20133;-70
2021/03/07 05:35:20;;;;;;;9.70;6.70;;;14.00;43.50;;;;;;4263529;27;20054;-70
2021/03/07 05:37:22;;;;;;;11.32;6.75;;;14.40;42.10;;;;;;4266171;27;20472;-71
2021/03/07 05:39:27;;;;;;;9.10;6.72;;;14.40;41.40;;;;;;4267251;27;20047;-71
2021/03/07 05:41:30;;;;;;;12.80;7.50;;;14.50;41.50;;;;;;4263676;27;20596;-70
2021/03/07 05:43:32;;;;;;;10.98;7.13;;;14.50;40.80;;;;;;4244931;28;20047;-71
2021/03/07 05:45:35;;;;;;;9.32;5.60;;;14.50;41.00;;;;;;4263148;27;20403;-70
2021/03/07 05:47:37;;;;;;;9.88;6.82;;;14.60;40.80;;;;;;4263035;27;20070;-71
2021/03/07 05:49:40;;;;;;;10.25;6.55;;;14.50;41.00;;;;;;4263218;27;20077;-70
2021/03/07 05:51:43;;;;;;;10.02;7.32;;;14.60;41.00;;;;;;4263382;27;20430;-71
2021/03/07 05:53:48;;;;;;;13.60;9.95;;;14.40;40.60;;;;;;4263016;27;20050;-70
2021/03/07 05:55:51;;;;;;;10.23;7.13;;;14.40;40.20;;;;;;4263638;27;20092;-70
2021/03/07 05:57:56;;;;;;;7.82;5.90;;;14.70;40.60;;;;;;4263662;27;20744;-72
2021/03/07 06:00:00;;;;;;;12.20;6.28;;;14.90;40.40;;;;;;4265773;27;20147;-72
2021/03/07 06:02:03;;;;;;;11.93;8.03;;;14.90;40.30;;;;;;4267039;27;20457;-72
2021/03/07 06:04:05;;;;;;;8.98;6.32;;;14.60;37.60;;;;;;4266378;27;20057;-71
2021/03/07 06:06:07;;;;;;;10.00;7.97;;;14.90;40.40;;;;;;4266356;27;20039;-70
2021/03/07 06:08:09;;;;;;;11.00;5.72;;;13.50;40.10;;;;;;4266330;27;20105;-71
2021/03/07 06:10:13;;;;;;;8.45;5.40;;;14.60;41.80;;;;;;4266254;27;20039;-71
2021/03/07 06:12:17;;;;;;;6.72;5.10;;;15.30;40.70;;;;;;4266457;27;20051;-71
2021/03/07 06:14:25;;;;;;;15.70;9.52;;;15.50;40.10;;;;;;4266160;27;20448;-69
2021/03/07 06:16:26;;;;;;;8.10;6.43;;;15.10;38.50;;;;;;4266548;27;20038;-70
2021/03/07 06:18:39;;;;;;;11.05;7.22;;;15.10;39.70;;;;;;4267103;27;20047;-71
2021/03/07 06:20:42;;;;;;;13.18;10.27;;;15.10;38.80;;;;;;4266950;27;20042;-72
2021/03/07 06:22:55;;;;;;;12.00;7.82;;;13.80;38.90;;;;;;4266413;27;20095;-70
2021/03/07 06:24:58;;;;;;;10.95;7.82;;;13.40;38.90;;;;;;4266252;27;20043;-70
2021/03/07 06:27:04;;;;;;;11.13;8.07;;;13.50;43.50;;;;;;4265991;27;20051;-73
2021/03/07 06:29:07;;;;;;;16.17;11.10;;;13.80;42.20;;;;;;4266378;27;20119;-69
2021/03/07 06:31:28;;;;;;;9.75;7.18;;;13.10;40.00;;;;;;4265911;27;20479;-72
2021/03/07 06:33:31;;;;;;;10.95;6.53;;;13.60;44.20;;;;;;4266012;27;20444;-71
2021/03/07 06:35:34;;;;;;;13.45;7.97;;;13.20;43.40;;;;;;4265797;27;20054;-73
2021/03/07 06:37:52;;;;;;;11.90;6.95;;;12.40;44.20;;;;;;4265769;27;20050;-68
2021/03/07 06:39:54;;;;;;;13.75;8.40;;;12.80;43.20;;;;;;4265795;27;20047;-72
2021/03/07 06:42:04;;;;;;;14.32;9.65;;;12.80;44.60;;;;;;4266040;27;20463;-70
2021/03/07 06:44:08;;;;;;;14.57;8.82;;;12.50;42.80;;;;;;4265702;27;20437;-69
2021/03/07 06:46:29;;;;;;;11.05;7.47;;;12.80;45.10;;;;;;4265879;27;20054;-72
2021/03/07 06:48:33;;;;;;;15.07;11.70;;;13.50;44.10;;;;;;4265486;27;20101;-70
2021/03/07 06:50:50;;;;;;;13.77;9.93;;;13.20;43.20;;;;;;4265525;27;20046;-70
2021/03/07 06:52:54;;;;;;;14.05;9.77;;;13.60;41.40;;;;;;4266161;27;20046;-71
2021/03/07 06:55:02;;;;;;;6.95;5.57;;;13.80;39.60;;;;;;4266791;27;20075;-70
2021/03/07 06:57:05;;;;;;;14.48;10.45;;;13.90;43.60;;;;;;4266338;27;20474;-71
2021/03/07 06:59:14;;;;;;;11.07;7.50;;;13.40;41.70;;;;;;4266324;27;20107;-73
2021/03/07 07:01:17;;;;;;;11.38;7.45;;;14.10;43.20;;;;;;4265767;27;20111;-69
2021/03/07 07:03:20;;;;;;;11.27;7.93;;;13.60;43.50;;;;;;4266120;27;20493;-69
2021/03/07 07:05:34;;;;;;;15.98;10.82;;;14.10;41.00;;;;;;4266117;27;20049;-70
2021/03/07 07:07:47;;;;;;;10.80;8.00;;;13.40;42.20;;;;;;4266147;27;20050;-70
2021/03/07 07:09:57;;;;;;;14.57;10.23;;;13.80;41.80;;;;;;4265742;27;20087;-69
2021/03/07 07:12:00;;;;;;;19.55;14.77;;;13.50;40.10;;;;;;4264811;27;20099;-70
2021/03/07 07:14:01;;;;;;;16.73;10.60;;;12.10;39.50;;;;;;4265200;27;20112;-69
2021/03/07 07:16:09;;;;;;;12.98;8.05;;;12.20;43.80;;;;;;4265457;27;20099;-69
2021/03/07 07:18:11;;;;;;;11.63;6.63;;;13.10;44.60;;;;;;4265711;27;20049;-72
2021/03/07 07:20:14;;;;;;;10.40;7.72;;;14.20;43.40;;;;;;4266086;27;20047;-70
2021/03/07 07:22:17;;;;;;;9.63;7.57;;;14.10;41.90;;;;;;4265488;27;20099;-69
2021/03/07 07:24:18;;;;;;;12.88;9.85;;;14.80;41.40;;;;;;4265361;27;20038;-71
2021/03/07 07:26:20;;;;;;;13.23;9.75;;;14.00;38.50;;;;;;4264946;27;20111;-69
2021/03/07 07:28:23;;;;;;;10.13;6.97;;;14.30;39.90;;;;;;4265118;27;20562;-68
2021/03/07 07:30:25;;;;;;;13.27;8.52;;;15.60;40.90;;;;;;4265356;27;20095;-69
2021/03/07 07:32:33;;;;;;;9.07;7.47;;;17.60;37.20;;;;;;4265685;27;20054;-69
2021/03/07 07:34:42;;;;;;;12.25;10.05;;;20.60;33.70;;;;;;4268209;27;20051;-70
2021/03/07 07:36:51;;;;;;;10.73;8.90;;;23.20;29.50;;;;;;4265173;27;20046;-71
2021/03/07 07:38:55;;;;;;;10.43;7.65;;;24.40;26.80;;;;;;4264799;27;20053;-69
2021/03/07 07:40:58;;;;;;;10.03;8.00;;;25.60;26.80;;;;;;4264474;27;20096;-69
2021/03/07 07:43:01;;;;;;;10.73;7.83;;;25.30;26.10;;;;;;4264381;27;20053;-70
2021/03/07 07:45:19;;;;;;;11.95;10.45;;;26.40;25.90;;;;;;4264359;27;20043;-70
2021/03/07 07:47:21;;;;;;;18.23;14.90;;;26.10;25.70;;;;;;4264190;27;20063;-69
2021/03/07 07:49:41;;;;;;;16.08;13.10;;;25.00;23.90;;;;;;4264436;27;20057;-69
2021/03/07 07:51:42;;;;;;;14.63;10.98;;;24.40;24.90;;;;;;4264241;27;20079;-67
2021/03/07 07:53:45;;;;;;;12.63;9.93;;;24.40;25.10;;;;;;4264103;27;20116;-68
2021/03/07 07:55:51;;;;;;;15.10;11.88;;;24.60;26.30;;;;;;4264410;27;20046;-70
2021/03/07 07:57:53;;;;;;;13.00;10.85;;;25.10;25.10;;;;;;4264387;27;20058;-68
2021/03/07 07:59:55;;;;;;;14.88;10.48;;;25.80;25.10;;;;;;4264128;27;20050;-71
2021/03/07 08:01:57;;;;;;;18.65;12.88;;;26.70;25.10;;;;;;4264175;27;20046;-68
2021/03/07 08:03:59;;;;;;;14.27;12.57;;;25.90;23.70;;;;;;4264157;27;20053;-71
2021/03/07 08:06:02;;;;;;;12.63;8.63;;;26.10;24.60;;;;;;4264150;27;20411;-70
2021/03/07 08:08:06;;;;;;;9.88;7.97;;;27.40;25.20;;;;;;4263950;27;20047;-70
2021/03/07 08:10:53;;;;;;;18.77;13.40;;;28.20;24.40;;;;;;4264166;27;20050;-68
2021/03/07 08:12:55;;;;;;;11.57;7.53;;;23.90;22.50;;;;;;4248309;27;20520;-70
2021/03/07 08:14:57;;;;;;;13.95;11.38;;;25.60;25.00;;;;;;4264053;27;20042;-70
2021/03/07 08:16:59;;;;;;;12.63;10.85;;;25.40;23.90;;;;;;4263980;27;20096;-69
2021/03/07 08:19:00;;;;;;;9.05;6.13;;;25.00;24.30;;;;;;4264000;27;20050;-70
2021/03/07 08:21:05;;;;;;;11.90;9.02;;;22.60;25.60;;;;;;4264086;27;20074;-69
2021/03/07 08:23:07;;;;;;;13.02;10.48;;;21.00;25.60;;;;;;4264315;27;20103;-68
2021/03/07 08:25:10;;;;;;;10.98;8.07;;;18.40;27.80;;;;;;4265699;27;20080;-69
2021/03/07 08:27:30;;;;;;;22.77;14.57;;;16.80;32.60;;;;;;4266880;27;20047;-68
2021/03/07 08:29:45;;;;;;;13.93;10.13;;;15.50;30.70;;;;;;4266982;27;20066;-68
2021/03/07 08:31:47;;;;;;;13.98;10.10;;;14.90;34.60;;;;;;4268286;27;20047;-68
2021/03/07 08:33:49;;;;;;;16.08;11.63;;;13.70;35.90;;;;;;4265757;27;20354;-69
2021/03/07 08:36:10;;;;;;;19.80;12.93;;;12.90;37.10;;;;;;4264789;27;20042;-68
2021/03/07 08:38:14;;;;;;;12.60;10.38;;;11.90;36.20;;;;;;4265608;27;20053;-73
2021/03/07 08:40:33;;;;;;;13.50;10.75;;;11.50;38.70;;;;;;4268731;27;20081;-69
2021/03/07 08:42:35;;;;;;;11.23;8.65;;;11.80;38.80;;;;;;4268812;27;20646;-70
2021/03/07 08:44:37;;;;;;;13.45;9.07;;;11.40;41.90;;;;;;4268830;27;20475;-68
2021/03/07 08:46:47;;;;;;;16.65;13.15;;;10.70;41.10;;;;;;4268522;27;20043;-68
2021/03/07 08:48:51;;;;;;;19.33;13.60;;;10.30;39.70;;;;;;4265427;27;20046;-68
2021/03/07 08:50:54;;;;;;;17.70;11.02;;;10.10;41.30;;;;;;4264977;27;20051;-68
2021/03/07 08:52:56;;;;;;;18.17;13.13;;;9.80;43.40;;;;;;4265205;27;20095;-69
2021/03/07 08:55:01;;;;;;;19.63;12.25;;;10.10;42.60;;;;;;4265247;27;20054;-69
2021/03/07 08:57:09;;;;;;;13.98;10.10;;;10.10;41.70;;;;;;4265117;27;20053;-68
2021/03/07 08:59:12;;;;;;;22.38;13.98;;;10.00;44.00;;;;;;4265331;27;20134;-70
2021/03/07 09:01:14;;;;;;;20.33;13.13;;;10.40;41.30;;;;;;4266380;27;20051;-69
2021/03/07 09:03:16;;;;;;;14.40;10.15;;;10.10;41.40;;;;;;4266759;27;20054;-72
2021/03/07 09:05:36;;;;;;;16.30;11.77;;;10.10;46.20;;;;;;4266391;27;20095;-68
2021/03/07 09:07:41;;;;;;;17.52;12.98;;;10.20;46.10;;;;;;4265657;27;20046;-68
2021/03/07 09:09:43;;;;;;;18.70;13.68;;;9.10;42.00;;;;;;4247203;27;20473;-68
2021/03/07 09:11:47;;;;;;;17.50;10.98;;;11.10;44.30;;;;;;4264596;27;20042;-71
2021/03/07 09:13:51;;;;;;;23.25;14.15;;;11.20;44.40;;;;;;4265356;27;20047;-73
2021/03/07 09:15:54;;;;;;;11.48;8.38;;;11.00;40.00;;;;;;4268250;27;20043;-69
2021/03/07 09:17:56;;;;;;;8.43;6.47;;;11.70;44.40;;;;;;4264791;27;20145;-74
2021/03/07 09:19:58;;;;;;;11.80;8.32;;;13.00;44.20;;;;;;4264574;27;20475;-69
2021/03/07 09:22:21;;;;;;;11.20;7.55;;;13.10;40.60;;;;;;4264728;27;20107;-74
2021/03/07 09:24:22;;;;;;;13.27;9.40;;;13.80;41.50;;;;;;4265367;27;20054;-69
2021/03/07 09:26:24;;;;;;;12.57;8.68;;;12.40;39.30;;;;;;4264528;27;20047;-69
2021/03/07 09:28:38;;;;;;;17.90;10.43;;;12.60;41.90;;;;;;4264847;27;20050;-68
2021/03/07 09:30:40;;;;;;;10.45;7.38;;;11.90;38.30;;;;;;4265296;27;20042;-69
2021/03/07 09:32:44;;;;;;;11.93;7.18;;;12.80;43.20;;;;;;4265180;27;20480;-69
2021/03/07 09:34:47;;;;;;;18.20;10.90;;;13.80;42.40;;;;;;4265642;27;20039;-68
2021/03/07 09:36:48;;;;;;;17.65;12.45;;;13.00;38.00;;;;;;4268149;27;20042;-68
2021/03/07 09:38:52;;;;;;;22.70;14.52;;;12.20;37.10;;;;;;4268313;27;20053;-70
2021/03/07 09:40:54;;;;;;;19.95;11.93;;;11.30;37.70;;;;;;4269076;27;20209;-68
2021/03/07 09:42:58;;;;;;;15.00;11.38;;;10.60;42.40;;;;;;4268559;27;20047;-68
2021/03/07 09:45:00;;;;;;;15.73;10.82;;;10.60;41.40;;;;;;4268017;27;20071;-69
2021/03/07 09:47:03;;;;;;;10.40;6.43;;;11.40;41.20;;;;;;4268429;27;20043;-68
2021/03/07 09:49:06;;;;;;;11.73;8.57;;;11.90;43.30;;;;;;4269113;27;20407;-70
2021/03/07 09:51:12;;;;;;;20.65;11.70;;;12.50;42.20;;;;;;4267663;27;20111;-69
2021/03/07 09:53:14;;;;;;;13.88;8.82;;;11.30;37.70;;;;;;4267851;27;20095;-69
2021/03/07 09:55:24;;;;;;;19.23;10.77;;;11.30;43.50;;;;;;4250297;27;20055;-70
2021/03/07 09:57:25;;;;;;;13.73;6.80;;;11.60;38.20;;;;;;4267527;27;20046;-69
2021/03/07 09:59:32;;;;;;;15.13;10.48;;;11.60;43.90;;;;;;4268023;27;20047;-70
2021/03/07 10:01:41;;;;;;;16.60;10.25;;;12.10;36.70;;;;;;4267553;27;20111;-68
2021/03/07 10:03:44;;;;;;;17.55;11.52;;;11.50;38.90;;;;;;4267108;27;20482;-69
2021/03/07 10:06:06;;;;;;;12.32;8.70;;;11.10;37.50;;;;;;4268218;27;20536;-69
2021/03/07 10:08:21;;;;;;;16.08;8.95;;;11.60;37.80;;;;;;4249934;27;20488;-71
2021/03/07 10:10:24;;;;;;;13.65;10.15;;;11.40;39.80;;;;;;4267453;27;20053;-68
2021/03/07 10:12:42;;;;;;;14.43;9.48;;;10.40;37.70;;;;;;4267679;27;20047;-71
2021/03/07 10:14:52;;;;;;;16.23;8.20;;;10.20;40.00;;;;;;4267128;27;20050;-68
2021/03/07 10:16:54;;;;;;;17.92;9.85;;;10.10;41.90;;;;;;4267181;27;20054;-70
2021/03/07 10:19:09;;;;;;;9.85;6.43;;;10.10;39.20;;;;;;4266772;27;20046;-68
2021/03/07 10:21:11;;;;;;;;;;;10.40;43.90;;;;;;4267593;27;20500;-68
2021/03/07 10:23:13;;;;;;;15.00;8.15;;;10.40;40.30;;;;;;4266467;27;19918;-68
2021/03/07 10:25:27;;;;;;;17.23;10.75;;;10.50;43.90;;;;;;4266070;27;20133;-69
2021/03/07 10:27:31;;;;;;;16.42;10.73;;;10.60;40.60;;;;;;4266431;27;20099;-69
2021/03/07 10:29:35;;;;;;;11.90;8.88;;;11.40;39.10;;;;;;4267006;27;20610;-68
2021/03/07 10:31:37;;;;;;;14.80;8.13;;;11.60;39.60;;;;;;4266159;27;20066;-68
2021/03/07 10:33:40;;;;;;;20.30;10.63;;;11.20;41.60;;;;;;4266102;27;20050;-68
2021/03/07 10:35:59;;;;;;;12.38;8.30;;;10.80;37.50;;;;;;4266250;27;20042;-69
2021/03/07 10:38:01;;;;;;;16.52;10.90;;;11.70;44.30;;;;;;4245653;27;20043;-68
2021/03/07 10:40:04;;;;;;;18.50;10.93;;;11.00;38.10;;;;;;4266076;27;20430;-68